Participated 3 times
Between 2014 and 2018
Darwin Atapuma, Colombia
Tour de France 2026 starts from Edinburgh, Scotland in

Stats and Facts from
Tour de France.

2026   2025   2024   2023  2022  2021  2020  2019   2018  2017   2016   2015  2014  2013   2012   2011  2010   2009   2008   2007   2006   2005   2004   2003   2002   2001   2000   1999   1998   1997  1996   1995   1994   1993   1992  1991   1990   1989   1988   1987   1986   1985   1984   1983  1982  1981   1980   1979  1978  1977   1976  1975  1974  1973   1972   1971   1970  1969   1968   1967   1966   1965  1964  1963   1962   1961   1960   1959   1958   1957  1956   1955   1954   1953   1952  1951  1950  1949   1948  1947  1939   1938   1937   1936   1935   1934   1933  1932   1931   1930  1929   1928   1927   1926  1925  1924  1923   1922   1921   1920   1919  1914   1913   1912   1911   1910  1909   1908   1907   1906  1905  1904   1903 

Tourstats
Sitemap

After stage 21 - 2026:
 16451 starters.
  5513 different riders.
  689 teams.
  2419 stages.
  470 restdays.
  469752.50 km.
  5946 abandoned riders.

Click map for 1995 route.
Facts from Tour de France 1995
  |   Stages.  |   Stage winners.  |   Days in jerseys.  |   Teams.  |   All riders.  |   All riders by age.  |   All riders from.  |  

  |   Rookies.  |   Withdrawls.  |   Average speed.  |   GC.  |   Polka  |   Green  |   White  |   Summits. (In tour)  |   Miscellaneous.  |  

Stage 14 on July 16th. 1995
Pick a stage:  Pro  1  2  3  4  5  6  7  8  9  10  11  12  13  14  15  17  18  19  20  

After stage 14:    Miguel Indurain  
  Saint-Orens-de-GamevilleGuzet-Neige | Dist: 164.00km. | Winner: Marco Pantani

Podium
4  Côte de Nougarade Laurent Brochardafter39.50 km.

2  Port de Lers Marco Pantaniafter131.00 km.

3  Col d'Agnes - Massat Marco Pantaniafter140.00 km.

3  Col de Latrape Marco Pantaniafter155.00 km.

1  Guzet Neige Marco Pantaniafter164.00 km.


Average speed for all riders in stage:  33,897 km./hr.

1
 Marco Pantani  Carrera Jeans-Tassoni04h 29' 08"=36,562  km/h

2
 Laurent Madouas  Castorama04h 31' 39"+  00:02:31 =36,223  km/h

3
 Miguel Indurain  Banesto04h 31' 39"+  00:02:31 =36,223  km/h

4  Alex Zülle  O.N.C.E.04h 31' 41"+  00:02:33 =36,219  km/h

5  Ivan Gotti  Gewiss-Ballan04h 31' 43"+  00:02:35 =36,214  km/h

6  Bjarne Riis  Gewiss-Ballan04h 31' 43"+  00:02:35 =36,214  km/h

7  Laurent Jalabert  O.N.C.E.04h 32' 32"+  00:03:24 =36,106  km/h

8  Richard Virenque  Festina04h 32' 32"+  00:03:24 =36,106  km/h

9  Claudio Chiappucci  Carrera Jeans-Tassoni04h 32' 32"+  00:03:24 =36,106  km/h

10  Paolo Lanfranchi  Brescialat04h 32' 34"+  00:03:26 =36,101  km/h

11  Bo Hamburger  TVM-Polis Direct04h 32' 36"+  00:03:28 =36,097  km/h

12  Fernando Escartin  Mapei-GP04h 32' 36"+  00:03:28 =36,097  km/h

13  Laurent Brochard  Festina04h 32' 59"+  00:03:51 =36,046  km/h

14  Gabriele Colombo  Gewiss-Ballan04h 33' 03"+  00:03:55 =36,037  km/h

15  Melchor Mauri  O.N.C.E.04h 33' 07"+  00:03:59 =36,029  km/h

16  Hernán Buenahora  Kelme-Avianca04h 33' 07"+  00:03:59 =36,029  km/h

17  Tony Rominger  Mapei-GP04h 34' 46"+  00:05:38 =35,812  km/h

18  Vicente Aparicio  Banesto04h 34' 46"+  00:05:38 =35,812  km/h

19  Vladimir Pulnikov  Telecom-ZG-Selle Italia04h 35' 29"+  00:06:21 =35,719  km/h

20  Massimiliano Lelli  Mercatone Uno-Saeco04h 35' 29"+  00:06:21 =35,719  km/h

21  Arsenio González  Mapei-GP04h 35' 32"+  00:06:24 =35,713  km/h

22  Bruno Cenghialta  Gewiss-Ballan04h 35' 32"+  00:06:24 =35,713  km/h

23  Álvaro Mejía  Motorola04h 36' 09"+  00:07:01 =35,633  km/h

24  Neil Stephens  O.N.C.E.04h 36' 58"+  00:07:50 =35,528  km/h

25  Viatcheslav Ekimov  Novell04h 38' 09"+  00:09:01 =35,377  km/h

26  Mariano Rojas  O.N.C.E.04h 38' 26"+  00:09:18 =35,341  km/h

27  Massimo Podenzana  Brescialat04h 38' 26"+  00:09:18 =35,341  km/h

28  Federico Muñoz  Kelme-Avianca04h 38' 26"+  00:09:18 =35,341  km/h

29  Beat Zberg  Carrera Jeans-Tassoni04h 39' 34"+  00:10:26 =35,197  km/h

30  Jesper Skibby  TVM-Polis Direct04h 39' 34"+  00:10:26 =35,197  km/h

31  Erik Breukink  O.N.C.E.04h 40' 09"+  00:11:01 =35,124  km/h

32  Jean-Cyril Robin  Festina04h 40' 09"+  00:11:01 =35,124  km/h

33  Carmelo Miranda  Banesto04h 40' 43"+  00:11:35 =35,053  km/h

34  Éric Boyer  Polti04h 42' 19"+  00:13:11 =34,854  km/h

35  Leonardo Sierra  Carrera Jeans-Tassoni04h 42' 19"+  00:13:11 =34,854  km/h

36  François Simon  Castorama04h 42' 19"+  00:13:11 =34,854  km/h

37  Udo Bölts  Telecom-ZG-Selle Italia04h 42' 19"+  00:13:11 =34,854  km/h

38  Herminio Diaz Zabala  O.N.C.E.04h 42' 19"+  00:13:11 =34,854  km/h

39  Gianni Bugno  MG Maglificio-Technogym04h 42' 22"+  00:13:14 =34,848  km/h

40  Franco Vona  MG Maglificio-Technogym04h 42' 22"+  00:13:14 =34,848  km/h

41  Georg Totschnig  Polti04h 42' 22"+  00:13:14 =34,848  km/h

42  Maarten Den Bakker  TVM-Polis Direct04h 46' 36"+  00:17:28 =34,334  km/h

43  Laudelino Cubino  Kelme-Avianca04h 50' 11"+  00:21:03 =33,910  km/h

44  Gérard Rué  Banesto04h 51' 46"+  00:22:38 =33,726  km/h

45  Laurent Dufaux  Festina04h 51' 46"+  00:22:38 =33,726  km/h

46  Ramon Gonzalez  Banesto04h 51' 46"+  00:22:38 =33,726  km/h

47  Erik Dekker  Novell04h 51' 46"+  00:22:38 =33,726  km/h

48  Andrea Ferrigato  Telecom-ZG-Selle Italia04h 57' 13"+  00:28:05 =33,107  km/h

49  Andrea Tafi  Mapei-GP04h 57' 13"+  00:28:05 =33,107  km/h

50  Fabian Jeker  Festina04h 57' 13"+  00:28:05 =33,107  km/h

51  Davide Perona  Lampre-Panaria04h 57' 13"+  00:28:05 =33,107  km/h

52  José Ramon Uriarte  Banesto04h 57' 13"+  00:28:05 =33,107  km/h

53  Djamolidine Abduzhaparov  Novell04h 57' 13"+  00:28:05 =33,107  km/h

54  Wilfried Peeters  Mapei-GP04h 57' 13"+  00:28:05 =33,107  km/h

55  Jean-François Bernard  Chazal-MBK-Konig04h 57' 13"+  00:28:05 =33,107  km/h

56  Andrea Peron  Motorola04h 57' 13"+  00:28:05 =33,107  km/h

57  Enrico Zaina  Carrera Jeans-Tassoni04h 57' 13"+  00:28:05 =33,107  km/h

58  Nicola Loda  MG Maglificio-Technogym04h 57' 13"+  00:28:05 =33,107  km/h

59  Miguel Arroyo  Chazal-MBK-Konig04h 57' 13"+  00:28:05 =33,107  km/h

60  Julio César Aguirre  Kelme-Avianca04h 57' 13"+  00:28:05 =33,107  km/h

61  Rolf Aldag  Telecom-ZG-Selle Italia04h 57' 13"+  00:28:05 =33,107  km/h

62  Yvon Ledanois  Gan04h 57' 13"+  00:28:05 =33,107  km/h

63  Jim Van De Laer  TVM-Polis Direct04h 57' 13"+  00:28:05 =33,107  km/h

64  Marcello Siboni  Carrera Jeans-Tassoni04h 57' 13"+  00:28:05 =33,107  km/h

65  Gilles Bouvard  Chazal-MBK-Konig04h 57' 13"+  00:28:05 =33,107  km/h

66  Dante Rezze  Aki-Gipiemme04h 57' 13"+  00:28:05 =33,107  km/h

67  Gianluca Bortolami  Mapei-GP04h 57' 13"+  00:28:05 =33,107  km/h

68  François Lemarchand  Gan04h 57' 13"+  00:28:05 =33,107  km/h

69  Eddy Bouwmans  Novell04h 57' 13"+  00:28:05 =33,107  km/h

70  Artūras Kasputis  Chazal-MBK-Konig04h 57' 13"+  00:28:05 =33,107  km/h

71  Didier Rous  Gan04h 57' 13"+  00:28:05 =33,107  km/h

72  Bruno Cornillet  Chazal-MBK-Konig04h 57' 13"+  00:28:05 =33,107  km/h

73  Giovanni Fidanza  Polti04h 57' 13"+  00:28:05 =33,107  km/h

74  Alberto Elli  MG Maglificio-Technogym04h 57' 13"+  00:28:05 =33,107  km/h

75  Rossano Brasi  Polti04h 57' 13"+  00:28:05 =33,107  km/h

76  Thierry Marie  Castorama04h 57' 13"+  00:28:05 =33,107  km/h

77  Bruno Boscardin  Festina04h 57' 13"+  00:28:05 =33,107  km/h

78  Peter Farazijn  Lotto-Isoglass04h 57' 13"+  00:28:05 =33,107  km/h

79  Jens Heppner  Telecom-ZG-Selle Italia04h 57' 13"+  00:28:05 =33,107  km/h

80  Fabio Casartelli  Motorola04h 57' 13"+  00:28:05 =33,107  km/h

81  Arvis Piziks  Novell04h 57' 13"+  00:28:05 =33,107  km/h

82  Guido Bontempi  Gewiss-Ballan04h 57' 13"+  00:28:05 =33,107  km/h

83  Zenon Jaskuła  Aki-Gipiemme04h 57' 13"+  00:28:05 =33,107  km/h

84  Andrei Tchmil  Lotto-Isoglass04h 57' 13"+  00:28:05 =33,107  km/h

85  Marino Alonso  Banesto04h 57' 13"+  00:28:05 =33,107  km/h

86  Bart Voskamp  TVM-Polis Direct04h 57' 13"+  00:28:05 =33,107  km/h

87  Frans Maassen  Novell04h 57' 13"+  00:28:05 =33,107  km/h

88  Alberto Volpi  Gewiss-Ballan04h 57' 13"+  00:28:05 =33,107  km/h

89  Davide Cassani  MG Maglificio-Technogym04h 57' 13"+  00:28:05 =33,107  km/h

90  Serguei Utchakov  Polti04h 57' 13"+  00:28:05 =33,107  km/h

91  Armand De Las Cuevas  Castorama04h 57' 13"+  00:28:05 =33,107  km/h

92  Gian Matteo Fagnini  Mercatone Uno-Saeco04h 57' 13"+  00:28:05 =33,107  km/h

93  Alessio Galletti  Lampre-Panaria04h 57' 13"+  00:28:05 =33,107  km/h

94  Stephen Swart  Motorola04h 57' 13"+  00:28:05 =33,107  km/h

95  Aitor Garmendia  Banesto04h 57' 13"+  00:28:05 =33,107  km/h

96  Johan Bruyneel  O.N.C.E.04h 57' 13"+  00:28:05 =33,107  km/h

97  Oscar Pelliccioli  Polti04h 57' 13"+  00:28:05 =33,107  km/h

98  Mauro Bettin  Aki-Gipiemme04h 57' 13"+  00:28:05 =33,107  km/h

99  Stefano Colagè  Telecom-ZG-Selle Italia04h 57' 13"+  00:28:05 =33,107  km/h

100  Johan Museeuw  Mapei-GP04h 57' 13"+  00:28:05 =33,107  km/h

101  José Angel Vidal  Kelme-Avianca04h 57' 13"+  00:28:05 =33,107  km/h

102  Sergio Barbero  Carrera Jeans-Tassoni04h 57' 13"+  00:28:05 =33,107  km/h

103  Rolf Järmann  MG Maglificio-Technogym04h 57' 13"+  00:28:05 =33,107  km/h

104  Thomas Davy  Banesto04h 57' 13"+  00:28:05 =33,107  km/h

105  Erik Zabel  Telecom-ZG-Selle Italia04h 57' 13"+  00:28:05 =33,107  km/h

106  Héctor Castaño  Kelme-Avianca04h 57' 13"+  00:28:05 =33,107  km/h

107  Flavio Vanzella  MG Maglificio-Technogym04h 57' 13"+  00:28:05 =33,107  km/h

108  Mario Scirea  Polti04h 57' 13"+  00:28:05 =33,107  km/h

109  Giancarlo Perini  Brescialat04h 57' 13"+  00:28:05 =33,107  km/h

110  Marco Milesi  Brescialat04h 57' 13"+  00:28:05 =33,107  km/h

111  Gianluca Gorini  Aki-Gipiemme04h 57' 13"+  00:28:05 =33,107  km/h

112  Giovanni Lombardi  Polti04h 57' 13"+  00:28:05 =33,107  km/h

113  Wladimir Belli  Lampre-Panaria04h 57' 13"+  00:28:05 =33,107  km/h

114  Stephen Hodge  Festina04h 57' 13"+  00:28:05 =33,107  km/h

115  Christophe Capelle  Gan04h 57' 13"+  00:28:05 =33,107  km/h

116  Massimo Donati  Mercatone Uno-Saeco04h 57' 13"+  00:28:05 =33,107  km/h

117  Lance Armstrong  Motorola04h 57' 13"+  00:28:05 =33,107  km/h

118  Steve Bauer  Motorola04h 57' 13"+  00:28:05 =33,107  km/h

119  Alexander Gontchenkov  Lampre-Panaria04h 57' 13"+  00:28:05 =33,107  km/h

120  Francesco Frattini  Gewiss-Ballan04h 57' 13"+  00:28:05 =33,107  km/h

121  Gilles Talmant  Castorama04h 57' 13"+  00:28:05 =33,107  km/h

122  Dario Bottaro  Gewiss-Ballan04h 57' 13"+  00:28:05 =33,107  km/h

123  Marco Serpellini  Lampre-Panaria04h 57' 13"+  00:28:05 =33,107  km/h

124  Dirk Baldinger  Polti04h 57' 13"+  00:28:05 =33,107  km/h

125  Frankie Andreu  Motorola04h 57' 13"+  00:28:05 =33,107  km/h

126  Eros Poli  Mercatone Uno-Saeco04h 57' 13"+  00:28:05 =33,107  km/h

127  Maximilian Sciandri  MG Maglificio-Technogym04h 57' 13"+  00:28:05 =33,107  km/h

128  Ángel Camargo  Kelme-Avianca04h 57' 13"+  00:28:05 =33,107  km/h

129  Francis Moreau  Gan04h 57' 13"+  00:28:05 =33,107  km/h


Todays birthdays.

1888 • Achille Serroen
1889 • Francois Magatti
1891 • Guglielmo Ceccherelli
1895 • Jules Dubois
1903 • Julien Delbecque
1915 • Emile Masson jr.
1922 • Maurice Lauze
1923 • Franco Franchi
1932 • Kurt Schneider
1940 • Franco Bitossi
1948 • Juan Zurano
1949 • Richard Pianaro
1954 • Alain Vigneron
1969 • Andrea Ferrigato
1975 • Dario Pieri
1978 • Rubén Lobato
1983 • Riccardo Riccò
1994 • Oliviero Troia
1996 • Eddie Dunbar

 

Optimized for Chrome - Edge
and Opera browsers.